Time;durP1;ratioP1;P1;durP2;ratioP2;P2;SDS_P1;SDS_P2;PMS_P1;PMS_P2;Temp;Humidity;BMP_temperature;BMP_pressure;BME280_temperature;BME280_humidity;BME280_pressure;Samples;Min_cycle;Max_cycle;Signal;HPM_P1;HPM_P2
2022/07/06 00:00:17;;;;;;;4.22;3.10;;;;;;;16.70;53.11;101806.63;688090;28;1105;-76
2022/07/06 00:00:38;;;;;;;4.88;3.35;;;;;;;16.62;53.08;101797.69;688363;28;784;-76
2022/07/06 00:00:58;;;;;;;5.32;3.38;;;;;;;16.62;53.01;101801.22;688188;28;1730;-76
2022/07/06 00:01:20;;;;;;;5.85;3.40;;;;;;;16.63;53.09;101799.44;693411;28;1191;-76
2022/07/06 00:01:41;;;;;;;4.60;3.20;;;;;;;16.59;53.14;101803.78;693633;28;1239;-76
2022/07/06 00:02:03;;;;;;;3.72;3.20;;;;;;;16.59;53.06;101803.78;690572;28;1219;-76
2022/07/06 00:02:25;;;;;;;3.60;3.30;;;;;;;16.58;53.07;101797.63;691426;28;1373;-78
2022/07/06 00:02:46;;;;;;;3.92;3.53;;;;;;;16.63;53.34;101818.81;690946;28;1192;-76
2022/07/06 00:03:07;;;;;;;4.68;3.70;;;;;;;16.56;53.14;101803.72;693535;28;1131;-76
2022/07/06 00:03:27;;;;;;;6.20;3.72;;;;;;;16.54;53.17;101800.19;696366;28;1047;-76
2022/07/06 00:03:48;;;;;;;7.10;3.65;;;;;;;16.52;53.22;101802.78;696529;28;760;-77
2022/07/06 00:04:09;;;;;;;6.03;3.63;;;;;;;16.51;53.31;101801.00;699088;28;1919;-76
2022/07/06 00:04:30;;;;;;;4.30;3.60;;;;;;;16.52;53.46;101796.59;699236;28;1100;-77
2022/07/06 00:04:51;;;;;;;4.40;3.60;;;;;;;16.48;53.50;101800.06;701964;28;1405;-76
2022/07/06 00:05:12;;;;;;;9.98;3.67;;;;;;;16.49;53.26;101807.09;693503;28;1408;-76
2022/07/06 00:05:37;;;;;;;11.80;3.60;;;;;;;16.50;53.27;101809.78;692655;28;1150;-76
2022/07/06 00:05:58;;;;;;;11.10;3.30;;;;;;;16.54;53.40;101810.72;690923;28;878;-76
2022/07/06 00:06:18;;;;;;;4.20;3.17;;;;;;;16.44;53.36;101797.38;690787;28;1021;-76
2022/07/06 00:06:40;;;;;;;3.97;3.13;;;;;;;16.46;53.24;101796.50;690955;28;1054;-76
2022/07/06 00:07:00;;;;;;;4.35;3.22;;;;;;;16.43;53.44;101794.69;688249;28;1112;-76
2022/07/06 00:07:22;;;;;;;3.95;3.30;;;;;;;16.44;53.29;101815.81;688064;28;1156;-76
2022/07/06 00:07:43;;;;;;;3.92;3.08;;;;;;;16.44;53.58;101797.38;690155;28;1112;-76
2022/07/06 00:08:05;;;;;;;6.35;3.15;;;;;;;16.40;53.50;101800.78;690827;28;1279;-76
2022/07/06 00:08:26;;;;;;;5.75;3.10;;;;;;;16.41;53.50;101802.56;688240;28;1192;-76
2022/07/06 00:08:47;;;;;;;5.57;3.30;;;;;;;16.41;53.35;101815.72;690938;28;989;-76
2022/07/06 00:09:08;;;;;;;3.50;3.20;;;;;;;16.46;53.54;101813.19;693585;28;1101;-76
2022/07/06 00:09:28;;;;;;;3.53;3.23;;;;;;;16.42;53.63;101806.97;690183;28;1115;-76
2022/07/06 00:09:49;;;;;;;4.23;3.20;;;;;;;16.40;53.47;101807.78;687308;28;1245;-76
2022/07/06 00:10:10;;;;;;;4.53;3.40;;;;;;;16.40;53.55;101805.16;690954;28;976;-77
2022/07/06 00:10:30;;;;;;;5.28;3.30;;;;;;;16.46;53.64;101817.59;693093;28;1161;-76
2022/07/06 00:10:52;;;;;;;6.07;3.35;;;;;;;16.40;53.54;101808.69;693577;28;1278;-75
2022/07/06 00:11:14;;;;;;;5.60;3.15;;;;;;;16.37;53.71;101807.75;693594;28;1143;-76
2022/07/06 00:11:34;;;;;;;5.13;3.00;;;;;;;16.42;53.57;101808.72;690836;28;1100;-76
2022/07/06 00:11:55;;;;;;;4.00;3.15;;;;;;;16.38;53.59;101806.88;690928;28;795;-76
2022/07/06 00:12:16;;;;;;;4.00;3.27;;;;;;;16.32;53.71;101805.00;690870;28;978;-76
2022/07/06 00:12:37;;;;;;;3.50;3.20;;;;;;;16.34;53.88;101802.41;691034;28;794;-76
2022/07/06 00:13:02;;;;;;;3.10;2.90;;;;;;;16.34;53.71;101805.06;693755;28;853;-76
2022/07/06 00:13:23;;;;;;;3.42;3.10;;;;;;;16.36;53.79;101806.88;690464;28;1197;-76
2022/07/06 00:13:44;;;;;;;4.53;3.30;;;;;;;16.36;53.84;101805.97;688176;28;1031;-76
2022/07/06 00:14:06;;;;;;;4.85;3.45;;;;;;;16.36;53.98;101806.88;688286;28;1068;-76
2022/07/06 00:14:28;;;;;;;4.85;3.30;;;;;;;16.32;53.86;101805.00;688083;28;1310;-76
2022/07/06 00:14:50;;;;;;;4.68;3.30;;;;;;;16.32;53.91;101810.28;691020;28;926;-76
2022/07/06 00:15:11;;;;;;;5.03;3.47;;;;;;;16.36;53.53;101811.22;693558;28;1136;-76
2022/07/06 00:15:32;;;;;;;4.82;3.40;;;;;;;16.36;53.75;101813.88;693698;28;1106;-76
2022/07/06 00:15:52;;;;;;;5.00;3.30;;;;;;;16.35;53.84;101809.47;693553;28;1222;-76
2022/07/06 00:16:13;;;;;;;4.38;3.05;;;;;;;16.25;53.92;101797.84;693708;28;1015;-75
2022/07/06 00:16:34;;;;;;;3.70;3.13;;;;;;;16.24;53.86;101801.28;690801;28;1186;-76
2022/07/06 00:16:55;;;;;;;3.50;3.15;;;;;;;16.23;53.68;101803.03;693455;28;1316;-76
2022/07/06 00:17:16;;;;;;;4.82;3.35;;;;;;;16.20;53.89;101799.44;690843;28;1098;-76
2022/07/06 00:17:37;;;;;;;4.75;3.20;;;;;;;16.22;53.98;101805.66;693609;28;1246;-76
2022/07/06 00:17:57;;;;;;;4.30;3.10;;;;;;;16.20;53.94;101810.88;699160;28;1131;-76
2022/07/06 00:18:18;;;;;;;7.72;3.10;;;;;;;16.21;54.05;101809.16;698887;28;1099;-76
2022/07/06 00:18:39;;;;;;;8.68;3.30;;;;;;;16.17;54.12;101802.94;692892;28;1049;-76
2022/07/06 00:19:00;;;;;;;7.95;3.25;;;;;;;16.14;54.26;101803.75;690488;28;1148;-76
2022/07/06 00:19:21;;;;;;;4.40;3.10;;;;;;;16.14;54.28;101811.66;688120;28;1106;-76
2022/07/06 00:19:42;;;;;;;3.90;2.90;;;;;;;16.11;54.31;101805.41;686930;28;1169;-75
2022/07/06 00:20:04;;;;;;;3.60;3.10;;;;;;;16.12;54.51;101808.06;690757;28;1473;-76
2022/07/06 00:20:25;;;;;;;3.90;3.00;;;;;;;16.07;54.30;101808.81;690789;28;1361;-76
2022/07/06 00:20:46;;;;;;;3.35;3.05;;;;;;;16.06;54.54;101805.31;688077;28;1053;-76
2022/07/06 00:21:06;;;;;;;3.25;2.90;;;;;;;16.10;54.55;101809.78;687668;28;1396;-76
2022/07/06 00:21:35;;;;;;;4.00;3.00;;;;;;;16.01;54.46;101796.44;690091;28;1861;-76
2022/07/06 00:22:04;;;;;;;4.78;3.03;;;;;;;16.03;54.62;101805.22;690963;28;1045;-76
2022/07/06 00:22:25;;;;;;;3.90;3.10;;;;;;;16.05;54.66;101806.19;690853;28;1056;-76
2022/07/06 00:22:46;;;;;;;3.85;3.17;;;;;;;16.00;54.63;101808.69;693659;28;1272;-76
2022/07/06 00:23:07;;;;;;;3.40;3.10;;;;;;;15.99;54.83;101803.41;685437;28;1153;-76
2022/07/06 00:23:28;;;;;;;3.40;3.10;;;;;;;16.00;54.67;101807.81;688139;28;1040;-76
2022/07/06 00:23:51;;;;;;;3.78;3.20;;;;;;;15.94;54.81;101798.03;688195;28;1283;-76
2022/07/06 00:24:13;;;;;;;4.10;3.30;;;;;;;15.91;54.77;101800.59;685427;28;1967;-76
2022/07/06 00:24:34;;;;;;;5.72;3.30;;;;;;;15.89;54.84;101795.31;685429;28;954;-76
2022/07/06 00:24:55;;;;;;;4.53;2.93;;;;;;;15.93;55.05;101805.91;688337;28;811;-76
2022/07/06 00:25:17;;;;;;;3.78;3.03;;;;;;;15.93;54.91;101809.44;690793;28;1115;-75
2022/07/06 00:25:40;;;;;;;3.72;3.20;;;;;;;15.87;55.03;101806.66;693608;28;1301;-76
2022/07/06 00:26:02;;;;;;;4.10;3.20;;;;;;;15.91;54.90;101800.59;693439;28;1386;-76
2022/07/06 00:26:22;;;;;;;4.60;3.25;;;;;;;15.88;55.11;101808.44;685371;28;1349;-76
2022/07/06 00:26:45;;;;;;;3.70;3.30;;;;;;;15.82;55.14;101803.03;690074;28;1082;-75
2022/07/06 00:27:05;;;;;;;3.90;3.50;;;;;;;15.85;55.04;101803.97;688170;28;1296;-76
2022/07/06 00:27:26;;;;;;;3.70;3.40;;;;;;;15.85;55.23;101801.34;690824;28;1068;-76
2022/07/06 00:27:47;;;;;;;3.78;3.47;;;;;;;15.87;55.19;101815.41;688187;28;1340;-75
2022/07/06 00:28:08;;;;;;;3.60;3.30;;;;;;;15.86;55.20;101811.00;690234;28;1206;-76
2022/07/06 00:28:29;;;;;;;3.65;3.17;;;;;;;15.83;55.12;101803.06;688125;28;1304;-76
2022/07/06 00:28:50;;;;;;;3.70;3.20;;;;;;;15.83;55.29;101800.44;690848;28;1355;-76
2022/07/06 00:29:12;;;;;;;3.55;3.25;;;;;;;15.92;55.17;101823.41;688200;28;1254;-76
2022/07/06 00:29:35;;;;;;;3.90;3.50;;;;;;;15.81;55.32;101810.03;684860;28;1335;-76
2022/07/06 00:29:55;;;;;;;3.78;3.45;;;;;;;15.81;55.44;101806.50;687997;28;1183;-76
2022/07/06 00:30:16;;;;;;;3.60;3.30;;;;;;;15.81;55.40;101812.69;690790;28;1172;-76
2022/07/06 00:30:37;;;;;;;3.58;3.28;;;;;;;15.81;55.39;101812.69;688186;28;1378;-76
2022/07/06 00:31:07;;;;;;;3.53;3.17;;;;;;;15.79;55.28;101808.22;688275;28;846;-76
2022/07/06 00:32:27;;;;;;;4.35;3.20;;;;;;;15.86;55.52;101821.53;685418;28;995;-76
2022/07/06 00:32:53;;;;;;;4.15;3.50;;;;;;;15.72;55.55;101804.53;690570;28;1390;-75
2022/07/06 00:33:14;;;;;;;5.50;3.60;;;;;;;15.73;55.52;101808.97;689282;28;1004;-76
2022/07/06 00:33:39;;;;;;;5.28;3.80;;;;;;;15.69;55.72;101807.13;684654;28;1663;-75
2022/07/06 00:34:00;;;;;;;4.95;3.40;;;;;;;15.71;55.62;101808.94;685484;28;1188;-76
2022/07/06 00:34:57;;;;;;;4.63;3.30;;;;;;;15.73;55.74;101823.00;690836;28;1191;-76
2022/07/06 00:35:22;;;;;;;4.47;3.15;;;;;;;15.61;55.94;101799.06;690505;28;1346;-75
2022/07/06 00:36:02;;;;;;;4.05;3.20;;;;;;;15.68;56.14;101822.00;688283;28;2049;-76
2022/07/06 00:36:23;;;;;;;4.78;3.30;;;;;;;15.61;56.01;101799.94;685340;28;1065;-76
2022/07/06 00:36:48;;;;;;;4.78;3.30;;;;;;;15.63;56.03;101803.47;688232;28;1149;-75
2022/07/06 00:37:10;;;;;;;3.80;3.30;;;;;;;15.62;56.01;101806.09;692593;28;1120;-76
2022/07/06 00:37:32;;;;;;;3.70;3.30;;;;;;;15.60;56.15;101806.06;692614;28;1122;-76
2022/07/06 00:37:53;;;;;;;3.92;3.40;;;;;;;15.58;56.17;101804.22;688144;28;950;-76
2022/07/06 00:38:15;;;;;;;4.20;3.35;;;;;;;15.55;56.10;101797.16;693590;28;1112;-76
2022/07/06 00:38:37;;;;;;;4.22;3.17;;;;;;;15.56;56.12;101800.69;693602;28;1072;-77
2022/07/06 00:39:19;;;;;;;4.47;3.10;;;;;;;15.65;56.01;101814.03;690854;28;1148;-76
2022/07/06 00:39:39;;;;;;;5.35;3.22;;;;;;;15.58;56.15;101796.34;690157;28;1358;-75
2022/07/06 00:40:00;;;;;;;6.65;3.30;;;;;;;15.60;55.99;101797.25;693402;28;754;-76
2022/07/06 00:40:22;;;;;;;5.05;3.20;;;;;;;15.63;56.04;101806.09;690563;28;1174;-76
2022/07/06 00:40:44;;;;;;;5.68;3.10;;;;;;;15.66;55.97;101807.06;688253;28;1250;-76
2022/07/06 00:41:10;;;;;;;4.80;3.10;;;;;;;15.66;55.92;101801.78;688207;28;1009;-76
2022/07/06 00:41:44;;;;;;;5.10;3.20;;;;;;;15.62;56.17;101812.22;688056;28;972;-77
2022/07/06 00:42:05;;;;;;;4.60;3.50;;;;;;;15.61;55.95;101802.56;688026;28;1621;-77
2022/07/06 00:42:27;;;;;;;4.25;3.20;;;;;;;15.65;55.97;101807.88;690723;28;928;-76
2022/07/06 00:42:52;;;;;;;5.93;3.78;;;;;;;15.61;56.04;101802.56;690860;28;1225;-76
2022/07/06 00:43:14;;;;;;;7.05;4.18;;;;;;;15.62;56.18;101796.44;689685;28;1880;-76
2022/07/06 00:43:56;;;;;;;8.30;4.25;;;;;;;15.62;56.03;101806.09;687634;28;1447;-77
2022/07/06 00:44:23;;;;;;;6.72;3.38;;;;;;;15.66;56.11;101814.94;685295;28;1920;-76
2022/07/06 00:44:50;;;;;;;5.38;3.20;;;;;;;15.62;55.85;101806.09;685501;28;1248;-76
2022/07/06 00:45:20;;;;;;;5.30;3.17;;;;;;;15.68;55.88;101821.13;688203;28;1215;-76
2022/07/06 00:45:41;;;;;;;5.40;3.30;;;;;;;15.60;56.00;101807.78;684461;28;1233;-77
2022/07/06 00:46:02;;;;;;;4.53;3.40;;;;;;;15.63;55.78;101808.75;682635;29;1137;-77
2022/07/06 00:46:33;;;;;;;4.82;3.50;;;;;;;15.64;56.02;101809.63;684850;28;1122;-77
2022/07/06 00:46:59;;;;;;;4.75;3.40;;;;;;;15.67;55.88;101819.34;687905;28;1447;-76
2022/07/06 00:47:20;;;;;;;5.13;3.70;;;;;;;15.60;55.99;101813.94;687698;28;1156;-76
2022/07/06 00:47:42;;;;;;;5.60;3.70;;;;;;;15.54;56.05;101798.00;688069;28;1152;-76
2022/07/06 00:48:03;;;;;;;4.88;3.40;;;;;;;15.63;55.99;101814.00;685401;28;1140;-77
2022/07/06 00:48:24;;;;;;;4.60;3.50;;;;;;;15.60;56.02;101813.94;687958;28;1552;-76
2022/07/06 00:48:48;;;;;;;4.50;3.75;;;;;;;15.60;55.91;101813.94;688236;28;728;-77
2022/07/06 00:50:13;;;;;;;6.13;4.30;;;;;;;15.63;55.93;101814.00;685414;28;1392;-77
2022/07/06 00:50:42;;;;;;;5.00;3.25;;;;;;;15.68;55.83;101829.03;684904;28;1292;-76
2022/07/06 00:51:03;;;;;;;4.90;3.40;;;;;;;15.57;55.83;101802.44;688035;28;1163;-77
2022/07/06 00:51:31;;;;;;;6.13;3.70;;;;;;;15.65;55.91;101821.03;685313;28;980;-77
2022/07/06 00:51:58;;;;;;;5.68;3.72;;;;;;;15.65;55.89;101815.78;685532;28;780;-76
2022/07/06 00:52:19;;;;;;;4.60;3.60;;;;;;;15.57;56.05;101806.00;687880;28;1009;-77
2022/07/06 00:53:05;;;;;;;4.65;3.33;;;;;;;15.68;55.90;101822.00;690122;28;1165;-76
2022/07/06 00:53:31;;;;;;;4.47;3.30;;;;;;;15.55;55.95;101802.41;685996;28;1265;-77
2022/07/06 00:53:58;;;;;;;5.75;3.55;;;;;;;15.58;56.03;101806.84;693673;28;760;-76
2022/07/06 00:54:19;;;;;;;5.88;3.47;;;;;;;15.61;55.68;101806.94;693235;28;1152;-76
2022/07/06 00:54:42;;;;;;;4.85;3.50;;;;;;;15.63;55.74;101813.13;688119;28;1246;-76
2022/07/06 00:55:04;;;;;;;4.45;3.63;;;;;;;15.56;55.87;101806.81;693529;28;1104;-76
2022/07/06 00:55:30;;;;;;;4.70;3.80;;;;;;;15.62;56.01;101817.50;690809;28;1019;-76
2022/07/06 00:55:53;;;;;;;5.75;3.70;;;;;;;15.59;55.84;101812.16;690868;28;823;-76
2022/07/06 00:56:17;;;;;;;4.90;3.50;;;;;;;15.59;55.93;101808.63;688149;28;1125;-77
2022/07/06 00:56:38;;;;;;;4.05;3.58;;;;;;;15.71;55.73;101821.19;687921;28;1415;-77
2022/07/06 00:56:59;;;;;;;5.03;3.63;;;;;;;15.71;55.77;101823.81;688157;28;712;-76
2022/07/06 00:57:25;;;;;;;6.32;3.80;;;;;;;15.66;55.73;101817.59;690731;28;1202;-76
2022/07/06 00:57:49;;;;;;;8.85;3.80;;;;;;;15.71;55.76;101822.09;690817;28;1617;-76
2022/07/06 00:58:11;;;;;;;7.45;3.38;;;;;;;15.77;55.55;101829.25;688019;28;997;-77
2022/07/06 00:58:34;;;;;;;6.03;3.45;;;;;;;15.66;55.95;101807.94;685437;28;1004;-76
2022/07/06 00:58:57;;;;;;;5.30;3.70;;;;;;;15.69;55.39;101808.03;688048;28;1220;-76
2022/07/06 00:59:19;;;;;;;5.13;3.80;;;;;;;15.73;55.52;101815.13;687993;28;1178;-76
2022/07/06 00:59:54;;;;;;;4.80;3.60;;;;;;;15.74;55.39;101816.03;684835;28;1243;-76
2022/07/06 01:00:19;;;;;;;4.28;3.60;;;;;;;15.76;55.53;101817.81;685416;28;1155;-76
2022/07/06 01:00:44;;;;;;;6.63;3.83;;;;;;;15.78;55.40;101823.13;682815;29;878;-77
2022/07/06 01:01:06;;;;;;;8.80;4.00;;;;;;;15.76;55.22;101822.19;688015;28;1272;-76
2022/07/06 01:01:27;;;;;;;7.65;4.00;;;;;;;15.76;55.50;101819.56;690719;28;969;-76
2022/07/06 01:01:49;;;;;;;6.38;3.88;;;;;;;15.69;55.39;101800.13;690839;28;1606;-76
2022/07/06 01:02:12;;;;;;;3.90;3.50;;;;;;;15.71;55.31;101810.66;687634;28;1367;-76
2022/07/06 01:02:36;;;;;;;3.70;3.40;;;;;;;15.72;55.53;101807.19;689327;28;1425;-76
2022/07/06 01:03:07;;;;;;;4.05;3.30;;;;;;;15.76;55.25;101814.31;688160;28;887;-75
2022/07/06 01:03:28;;;;;;;5.45;3.70;;;;;;;15.76;55.15;101807.28;690811;28;973;-75
2022/07/06 01:03:49;;;;;;;5.82;4.00;;;;;;;15.78;55.15;101811.72;690734;28;1105;-76
2022/07/06 01:04:11;;;;;;;4.43;3.95;;;;;;;15.78;55.16;101811.72;692479;28;1973;-76
2022/07/06 01:04:33;;;;;;;4.10;3.70;;;;;;;15.82;55.19;101824.97;692433;28;1107;-76
2022/07/06 01:04:57;;;;;;;4.10;3.70;;;;;;;15.79;55.15;101818.75;693089;28;1293;-76
2022/07/06 01:05:19;;;;;;;4.15;3.75;;;;;;;15.71;55.10;101806.31;690482;28;1265;-76
2022/07/06 01:05:40;;;;;;;4.93;3.70;;;;;;;15.74;55.12;101813.38;688203;28;811;-76
2022/07/06 01:06:07;;;;;;;5.55;3.80;;;;;;;15.82;55.04;101810.91;687562;28;1243;-76
2022/07/06 01:06:28;;;;;;;5.57;4.00;;;;;;;15.78;54.97;101812.59;690633;28;1009;-76
2022/07/06 01:06:49;;;;;;;5.38;4.00;;;;;;;15.76;55.12;101812.53;690738;28;1063;-76
2022/07/06 01:07:10;;;;;;;5.75;3.80;;;;;;;15.76;55.06;101812.53;688036;28;1155;-76
2022/07/06 01:07:32;;;;;;;5.38;3.78;;;;;;;15.79;55.23;101819.63;688101;28;984;-76
2022/07/06 01:07:53;;;;;;;5.20;3.80;;;;;;;15.78;55.07;101815.22;688173;28;807;-76
2022/07/06 01:08:15;;;;;;;5.25;3.92;;;;;;;15.82;55.09;101822.34;687211;28;1261;-76
2022/07/06 01:08:39;;;;;;;5.25;3.85;;;;;;;15.76;55.18;101819.56;688054;28;1334;-76
2022/07/06 01:09:01;;;;;;;6.10;3.80;;;;;;;15.76;55.18;101824.84;690737;28;1011;-76
2022/07/06 01:09:22;;;;;;;5.80;3.63;;;;;;;15.75;55.16;101820.44;690642;28;1010;-76
2022/07/06 01:09:43;;;;;;;5.10;3.55;;;;;;;15.73;55.27;101814.25;692935;28;1161;-76
2022/07/06 01:10:05;;;;;;;3.70;3.40;;;;;;;15.68;55.11;101816.75;693431;28;1126;-75
2022/07/06 01:10:26;;;;;;;4.35;3.63;;;;;;;15.73;55.15;101824.78;690210;28;1131;-76
2022/07/06 01:10:48;;;;;;;5.30;3.65;;;;;;;15.70;55.27;101814.16;687889;28;1346;-76
2022/07/06 01:11:09;;;;;;;6.60;3.35;;;;;;;15.74;55.18;101827.41;682575;29;1172;-76
2022/07/06 01:11:32;;;;;;;5.85;3.40;;;;;;;15.68;55.11;101822.00;685095;28;1183;-76
2022/07/06 01:11:53;;;;;;;7.32;3.67;;;;;;;15.66;55.15;101818.44;688052;28;1473;-76
2022/07/06 01:12:14;;;;;;;7.60;3.92;;;;;;;15.68;55.24;101818.50;690772;28;1009;-76
2022/07/06 01:12:36;;;;;;;7.40;3.90;;;;;;;15.68;55.12;101829.03;689564;28;1872;-76
2022/07/06 01:12:57;;;;;;;5.78;3.63;;;;;;;15.61;55.15;101815.72;691078;28;1648;-76
2022/07/06 01:13:20;;;;;;;4.78;3.50;;;;;;;15.61;55.20;101823.59;687874;28;1359;-76
2022/07/06 01:13:42;;;;;;;5.60;3.60;;;;;;;15.61;55.34;101818.34;693283;28;1234;-76
2022/07/06 01:14:09;;;;;;;4.82;3.30;;;;;;;15.55;55.42;101819.94;692790;28;1260;-76
2022/07/06 01:14:35;;;;;;;3.90;3.30;;;;;;;15.54;55.50;101815.53;693427;28;1361;-76
2022/07/06 01:14:58;;;;;;;4.28;3.40;;;;;;;15.51;55.43;101813.72;690547;28;1988;-76
2022/07/06 01:15:22;;;;;;;3.60;3.20;;;;;;;15.52;55.70;101823.38;687792;28;1395;-76
2022/07/06 01:15:49;;;;;;;4.90;3.60;;;;;;;15.46;55.62;101815.34;688147;28;756;-76
2022/07/06 01:16:12;;;;;;;4.60;3.75;;;;;;;15.52;55.59;101820.75;693405;28;1159;-76
2022/07/06 01:16:33;;;;;;;4.75;3.67;;;;;;;15.48;55.63;101819.78;693218;28;1567;-76
2022/07/06 01:17:15;;;;;;;4.10;3.70;;;;;;;15.44;55.83;101814.44;688008;28;1145;-76
2022/07/06 01:17:40;;;;;;;5.05;3.70;;;;;;;15.46;55.83;101820.59;693305;28;1134;-76
2022/07/06 01:18:04;;;;;;;5.88;3.90;;;;;;;15.40;55.84;101809.94;695562;28;937;-76
2022/07/06 01:18:27;;;;;;;5.90;3.90;;;;;;;15.39;55.89;101811.69;690124;28;1245;-76
2022/07/06 01:18:49;;;;;;;6.38;3.90;;;;;;;15.39;55.84;101814.31;690759;28;1265;-76
2022/07/06 01:19:11;;;;;;;5.88;3.95;;;;;;;15.34;55.95;101805.41;690716;28;980;-76
2022/07/06 01:19:35;;;;;;;4.22;3.83;;;;;;;15.42;55.90;101818.78;684806;28;2029;-75
2022/07/06 01:19:55;;;;;;;4.75;3.75;;;;;;;15.43;56.05;101817.91;687820;28;1388;-77
2022/07/06 01:20:21;;;;;;;3.83;3.42;;;;;;;15.32;55.78;101804.50;687719;28;1486;-75
2022/07/06 01:20:44;;;;;;;4.05;3.53;;;;;;;15.30;56.04;101803.56;689297;28;1278;-76
2022/07/06 01:21:13;;;;;;;4.90;3.80;;;;;;;15.33;56.10;101808.91;690781;28;1028;-76
2022/07/06 01:21:44;;;;;;;4.57;3.80;;;;;;;15.34;56.05;101816.84;690469;28;1689;-76
2022/07/06 01:22:09;;;;;;;4.75;3.90;;;;;;;15.30;56.20;101817.59;690660;28;1217;-76
2022/07/06 01:22:49;;;;;;;6.43;3.92;;;;;;;15.24;56.12;101801.66;690591;28;1252;-76
2022/07/06 01:23:10;;;;;;;6.55;3.83;;;;;;;15.23;56.12;101813.03;692412;28;1632;-76
2022/07/06 01:23:30;;;;;;;4.95;3.70;;;;;;;15.24;56.06;101813.94;690069;28;1224;-76
2022/07/06 01:23:52;;;;;;;3.85;3.47;;;;;;;15.23;56.16;101809.53;687966;28;1291;-75
2022/07/06 01:24:14;;;;;;;3.80;3.50;;;;;;;15.23;56.07;101807.75;685168;28;1967;-76
2022/07/06 01:24:48;;;;;;;4.20;3.80;;;;;;;15.21;56.02;101812.09;685206;28;1894;-76
2022/07/06 01:25:10;;;;;;;6.22;4.30;;;;;;;15.25;56.30;101821.88;687897;28;1196;-75
2022/07/06 01:25:32;;;;;;;6.03;3.92;;;;;;;15.21;56.44;101814.75;687886;28;944;-76
2022/07/06 01:25:56;;;;;;;6.05;3.55;;;;;;;15.16;56.62;101818.94;685323;28;1288;-76
2022/07/06 01:26:21;;;;;;;5.85;3.30;;;;;;;15.22;56.40;101821.78;687932;28;1025;-76
2022/07/06 01:26:43;;;;;;;5.80;3.30;;;;;;;15.15;56.42;101811.91;693411;28;1913;-76
2022/07/06 01:27:06;;;;;;;4.90;3.40;;;;;;;15.14;56.48;101810.13;693312;28;1166;-76
2022/07/06 01:27:38;;;;;;;4.60;3.50;;;;;;;15.15;56.39;101814.53;692925;28;1061;-77
2022/07/06 01:27:59;;;;;;;4.07;3.40;;;;;;;15.16;56.46;101821.56;693171;28;1691;-76
2022/07/06 01:28:22;;;;;;;4.68;3.83;;;;;;;15.20;56.51;101833.97;687258;28;1132;-76
2022/07/06 01:28:44;;;;;;;5.15;4.00;;;;;;;15.12;56.75;101814.47;690795;28;842;-76
2022/07/06 01:29:05;;;;;;;5.30;3.92;;;;;;;15.12;56.57;101819.72;687073;28;1374;-76
2022/07/06 01:29:26;;;;;;;6.63;4.00;;;;;;;15.05;56.66;101814.31;690451;28;1009;-76
2022/07/06 01:29:47;;;;;;;8.60;4.10;;;;;;;15.08;56.73;101824.88;688454;28;1380;-75
2022/07/06 01:30:40;;;;;;;7.93;3.87;;;;;;;15.16;56.70;101834.72;690443;28;1350;-76
2022/07/06 01:31:01;;;;;;;5.70;3.55;;;;;;;15.07;56.70;101816.97;687598;28;1858;-76
2022/07/06 01:31:25;;;;;;;6.05;3.85;;;;;;;15.02;56.83;101810.72;685170;28;1300;-76
2022/07/06 01:31:49;;;;;;;5.88;4.00;;;;;;;15.09;56.81;101820.53;685228;28;1149;-76
2022/07/06 01:32:10;;;;;;;5.10;3.70;;;;;;;15.10;56.63;101826.69;685131;28;1227;-76
2022/07/06 01:32:31;;;;;;;4.50;3.70;;;;;;;15.12;56.60;101819.72;689283;28;1100;-77
2022/07/06 01:32:52;;;;;;;4.15;3.75;;;;;;;15.07;56.47;101815.22;690633;28;1332;-76
2022/07/06 01:33:16;;;;;;;4.57;4.00;;;;;;;15.04;56.68;101809.91;689928;28;1844;-77
2022/07/06 01:33:39;;;;;;;4.35;3.70;;;;;;;15.05;56.88;101823.91;690708;28;1202;-76
2022/07/06 01:34:02;;;;;;;4.68;3.53;;;;;;;15.06;56.67;101821.34;687793;28;1257;-77
2022/07/06 01:34:23;;;;;;;4.25;3.33;;;;;;;15.04;56.45;101823.03;685367;28;1105;-77
2022/07/06 01:34:44;;;;;;;4.45;3.65;;;;;;;15.05;56.68;101822.19;685330;28;1262;-76
2022/07/06 01:35:07;;;;;;;4.30;3.90;;;;;;;15.05;56.71;101819.56;687654;28;1861;-77
2022/07/06 01:35:31;;;;;;;4.40;4.00;;;;;;;15.01;56.76;101814.19;690746;28;1149;-76
2022/07/06 01:35:53;;;;;;;4.82;4.05;;;;;;;15.05;56.59;101835.34;695744;28;1051;-76
2022/07/06 01:36:16;;;;;;;5.40;3.92;;;;;;;15.01;56.81;101819.44;690578;28;1199;-76
2022/07/06 01:36:39;;;;;;;5.30;3.80;;;;;;;14.98;56.60;101807.09;693362;28;1268;-75
2022/07/06 01:37:26;;;;;;;7.60;3.80;;;;;;;15.11;56.67;101833.72;695597;28;920;-77
2022/07/06 01:37:47;;;;;;;6.20;4.00;;;;;;;15.05;56.80;101824.81;693067;28;1736;-76
2022/07/06 01:38:08;;;;;;;4.60;4.07;;;;;;;14.94;56.52;101805.25;690782;28;1047;-77
2022/07/06 01:38:29;;;;;;;4.57;4.07;;;;;;;15.00;56.83;101821.16;687891;28;1176;-77
2022/07/06 01:38:59;;;;;;;4.45;3.60;;;;;;;14.98;56.93;101815.00;690660;28;1280;-76
2022/07/06 01:39:21;;;;;;;5.90;3.60;;;;;;;14.96;56.91;101819.31;690385;28;1306;-77
2022/07/06 01:39:45;;;;;;;6.40;3.50;;;;;;;14.93;56.97;101806.09;690181;28;1172;-76
2022/07/06 01:40:08;;;;;;;5.22;3.60;;;;;;;14.96;56.83;101815.78;687613;28;1364;-76
2022/07/06 01:40:29;;;;;;;4.05;3.60;;;;;;;15.01;56.75;101822.94;684302;28;1040;-76
2022/07/06 01:40:55;;;;;;;5.35;3.95;;;;;;;14.88;56.64;101805.09;685147;28;1298;-76
2022/07/06 01:41:20;;;;;;;5.22;3.80;;;;;;;14.89;57.04;101806.88;684598;28;1120;-75
2022/07/06 01:41:41;;;;;;;4.50;3.70;;;;;;;14.87;56.91;101798.06;690677;28;1090;-76
2022/07/06 01:42:02;;;;;;;4.00;3.60;;;;;;;14.85;57.04;101800.63;687971;28;1202;-76
2022/07/06 01:42:24;;;;;;;4.20;3.80;;;;;;;14.94;57.13;101821.03;692160;28;1127;-76
2022/07/06 01:42:45;;;;;;;4.20;3.80;;;;;;;14.91;57.00;101823.56;693437;28;1131;-76
2022/07/06 01:43:07;;;;;;;4.75;3.90;;;;;;;14.89;57.00;101820.00;690491;28;1059;-76
2022/07/06 01:43:29;;;;;;;9.10;4.30;;;;;;;14.77;57.14;101796.91;689474;28;1144;-76
2022/07/06 01:43:53;;;;;;;9.30;4.40;;;;;;;14.81;57.29;101804.00;692979;28;1139;-76
2022/07/06 01:44:14;;;;;;;6.57;3.93;;;;;;;14.80;57.19;101808.41;687417;28;1921;-75
2022/07/06 01:44:44;;;;;;;4.57;3.73;;;;;;;14.73;57.54;101806.44;687710;28;1462;-76
2022/07/06 01:45:06;;;;;;;6.45;4.00;;;;;;;14.82;57.37;101823.31;687508;28;1265;-75
2022/07/06 01:45:33;;;;;;;5.75;3.97;;;;;;;14.78;57.34;101818.00;685228;28;1296;-76
2022/07/06 01:45:59;;;;;;;5.90;3.85;;;;;;;14.74;57.34;101805.59;684895;28;1256;-76
2022/07/06 01:46:20;;;;;;;4.95;3.80;;;;;;;14.76;57.26;101805.66;690507;28;1167;-75
2022/07/06 01:47:00;;;;;;;6.80;3.97;;;;;;;14.85;57.35;101826.00;692945;28;1515;-76
2022/07/06 01:47:25;;;;;;;9.50;4.55;;;;;;;14.76;57.46;101811.78;685113;28;1104;-76
2022/07/06 01:47:46;;;;;;;8.90;4.60;;;;;;;14.76;57.28;101808.28;685356;28;859;-76
2022/07/06 01:48:13;;;;;;;6.20;4.00;;;;;;;14.73;57.35;101803.81;684950;28;1149;-76
2022/07/06 01:48:38;;;;;;;5.55;3.88;;;;;;;14.70;57.58;101801.13;687876;28;991;-76
2022/07/06 01:49:01;;;;;;;5.60;4.05;;;;;;;14.69;57.49;101796.69;690472;28;1258;-76
2022/07/06 01:49:22;;;;;;;5.75;4.10;;;;;;;14.69;57.47;101801.94;690537;28;1141;-76
2022/07/06 01:49:44;;;;;;;5.80;4.03;;;;;;;14.72;57.49;101809.94;684684;28;1366;-76
2022/07/06 01:50:07;;;;;;;4.80;3.90;;;;;;;14.73;57.57;101813.44;685254;28;1005;-76
2022/07/06 01:50:31;;;;;;;5.05;4.30;;;;;;;14.75;57.57;101820.50;687889;28;1215;-76
2022/07/06 01:51:08;;;;;;;5.00;4.20;;;;;;;14.64;57.44;101800.94;690232;28;1263;-76
2022/07/06 01:51:30;;;;;;;5.55;3.80;;;;;;;14.71;57.60;101817.75;687648;28;1381;-76
2022/07/06 01:51:53;;;;;;;6.20;4.10;;;;;;;14.65;57.71;101808.84;687979;28;796;-76
2022/07/06 01:52:16;;;;;;;5.60;4.05;;;;;;;14.68;57.45;101802.81;687610;28;1073;-75
2022/07/06 01:52:39;;;;;;;6.07;4.30;;;;;;;14.67;57.62;101803.66;690736;28;1201;-76
2022/07/06 01:53:00;;;;;;;5.95;4.40;;;;;;;14.69;57.55;101803.69;685139;28;1181;-76
2022/07/06 01:53:24;;;;;;;4.78;4.00;;;;;;;14.71;57.52;101813.41;693166;28;1175;-76
2022/07/06 01:53:45;;;;;;;4.47;3.80;;;;;;;14.70;57.63;101814.25;693337;28;1400;-76
2022/07/06 01:54:06;;;;;;;5.00;3.70;;;;;;;14.72;57.59;101815.19;687966;28;1163;-76
2022/07/06 01:54:29;;;;;;;5.45;3.90;;;;;;;14.70;57.87;101819.53;693284;28;1008;-76